Cruise inventory

RRS Challenger CH24

Cruise summary report

Cruise Info. 
Ship name (ship code)RRS Challenger (74CH)
Cruise identifierCH24
Cruise period1988-02-03 — 1988-02-15
StatusCompleted
ObjectivesPhysical Oceanography. Scottish Coastal Current
Chief scientistJohn H Simpson (University of Wales, Bangor School of Ocean Sciences)
Ocean/sea areas 
GeneralInner Seas off the West Coast of Scotland
North East Atlantic Ocean (limit 40W)
SpecificAtlantic waters, West of Scotland
Measurements 
Physical oceanography 
Surface measurements underway (T,S)Description: floppy
Water bottle stationsQuantity: number of stations = 139
Description: S surface 60 T surface
CTD stationsQuantity: number of stations = 91
Description: floppy Neil Brown Mark III
Current metersQuantity: number of deployments = 17
Description: floppy 60 days
Chemical oceanography 
PhosphateQuantity: number of stations = 70
NitrateQuantity: number of stations = 70
NitriteQuantity: number of stations = 70
SilicateQuantity: number of stations = 70
RadioactivityQuantity: number of samples = 25
IsotopesQuantity: number of samples = 25
Biology and fisheries 
Phytoplankton pigs (eg chlorophyll, fluorescence)Quantity: number of stations = 58
Data held at BODC 
Series/Profiles 
91  CTD/STD cast
Electrical conductivity of the water column
Vertical spatial coordinates
Salinity of the water column
Temperature of the water column
Electrical conductivity of the water column
Vertical spatial coordinates
Salinity of the water column
Temperature of the water column

BODC idDate/TimeLocationDoc.
2949541988-02-07 09:10 58° 10' 0" N  5° 50' 5" W  View metadata report for BODC series reference number 294954
2949661988-02-07 10:01 58° 9' 53" N  6° 0' 11" W  View metadata report for BODC series reference number 294966
2949781988-02-07 11:03 58° 10' 41" N  6° 9' 47" W  View metadata report for BODC series reference number 294978
2949911988-02-07 13:47 58° 25' 0" N  6° 3' 35" W  View metadata report for BODC series reference number 294991
2950051988-02-07 14:50 58° 30' 18" N  6° 9' 24" W  View metadata report for BODC series reference number 295005
2950171988-02-07 15:45 58° 30' 0" N  5° 58' 59" W  View metadata report for BODC series reference number 295017
2950291988-02-07 16:53 58° 30' 24" N  5° 49' 18" W  View metadata report for BODC series reference number 295029
2950301988-02-07 17:53 58° 30' 11" N  5° 40' 41" W  View metadata report for BODC series reference number 295030
2950421988-02-07 18:55 58° 30' 24" N  5° 31' 41" W  View metadata report for BODC series reference number 295042
2958411988-02-05 04:48 56° 45' 6" N  9° 30' 18" W  View metadata report for BODC series reference number 295841
2958531988-02-05 07:44 56° 45' 47" N  9° 8' 17" W  View metadata report for BODC series reference number 295853
2958651988-02-05 10:46 56° 46' 23" N  9° 6' 54" W  View metadata report for BODC series reference number 295865
2958771988-02-05 13:46 56° 46' 36" N  9° 4' 36" W  View metadata report for BODC series reference number 295877
2958891988-02-05 16:10 56° 47' 12" N  9° 3' 53" W  View metadata report for BODC series reference number 295889
2958901988-02-05 17:20 56° 47' 42" N  9° 1' 30" W  View metadata report for BODC series reference number 295890
2959081988-02-05 19:29 56° 44' 48" N  8° 43' 41" W  View metadata report for BODC series reference number 295908
2959211988-02-13 18:47 56° 45' 47" N  9° 1' 23" W  View metadata report for BODC series reference number 295921
2959331988-02-13 19:28 56° 46' 23" N  9° 2' 48" W  View metadata report for BODC series reference number 295933
2959451988-02-13 20:08 56° 46' 5" N  9° 4' 36" W  View metadata report for BODC series reference number 295945
2959571988-02-13 21:16 56° 45' 54" N  9° 6' 24" W  View metadata report for BODC series reference number 295957
2959691988-02-13 22:43 56° 44' 41" N  9° 9' 29" W  View metadata report for BODC series reference number 295969
2959701988-02-14 00:51 56° 44' 53" N  9° 19' 23" W  View metadata report for BODC series reference number 295970
2959821988-02-14 23:30 57° 55' 18" N  9° 10' 36" W  View metadata report for BODC series reference number 295982
2959941988-02-15 01:31 57° 56' 23" N  9° 33' 6" W  View metadata report for BODC series reference number 295994
2960081988-02-15 02:39 57° 57' 11" N  9° 41' 12" W  View metadata report for BODC series reference number 296008
2960211988-02-15 04:00 57° 57' 42" N  9° 43' 18" W  View metadata report for BODC series reference number 296021
2960331988-02-15 05:25 57° 58' 23" N  9° 48' 0" W  View metadata report for BODC series reference number 296033
2945361988-02-03 22:43 55° 25' 5" N  5° 24' 36" W  View metadata report for BODC series reference number 294536
2945481988-02-03 23:33 55° 19' 59" N  5° 22' 47" W  View metadata report for BODC series reference number 294548
2945611988-02-04 00:21 55° 14' 53" N  5° 22' 41" W  View metadata report for BODC series reference number 294561
2945731988-02-04 01:16 55° 10' 18" N  5° 30' 24" W  View metadata report for BODC series reference number 294573
2945851988-02-04 02:00 55° 8' 59" N  5° 35' 41" W  View metadata report for BODC series reference number 294585
2945971988-02-04 09:37 56° 2' 42" N  6° 28' 54" W  View metadata report for BODC series reference number 294597
2946041988-02-04 11:56 55° 57' 29" N  6° 44' 53" W  View metadata report for BODC series reference number 294604
2946161988-02-04 14:05 55° 57' 42" N  7° 0' 11" W  View metadata report for BODC series reference number 294616
2946281988-02-04 19:03 55° 57' 29" N  7° 17' 30" W  View metadata report for BODC series reference number 294628
2946411988-02-04 17:13 56° 2' 48" N  7° 36' 54" W  View metadata report for BODC series reference number 294641
2946531988-02-05 20:40 56° 45' 11" N  8° 32' 48" W  View metadata report for BODC series reference number 294653
2946651988-02-05 21:57 56° 45' 54" N  8° 12' 6" W  View metadata report for BODC series reference number 294665
2946771988-02-05 23:16 56° 45' 0" N  7° 59' 17" W  View metadata report for BODC series reference number 294677
2946891988-02-06 00:11 56° 45' 24" N  7° 49' 41" W  View metadata report for BODC series reference number 294689
2946901988-02-06 01:22 56° 44' 53" N  7° 40' 11" W  View metadata report for BODC series reference number 294690
2947081988-02-06 02:21 56° 45' 11" N  7° 30' 6" W  View metadata report for BODC series reference number 294708
2947211988-02-06 03:20 56° 45' 0" N  7° 21' 36" W  View metadata report for BODC series reference number 294721
2947331988-02-06 04:22 56° 45' 29" N  7° 10' 18" W  View metadata report for BODC series reference number 294733
2947451988-02-06 05:23 56° 46' 0" N  7° 1' 54" W  View metadata report for BODC series reference number 294745
2947571988-02-06 06:20 56° 45' 35" N  6° 52' 23" W  View metadata report for BODC series reference number 294757
2947691988-02-06 07:17 56° 45' 35" N  6° 41' 48" W  View metadata report for BODC series reference number 294769
2947701988-02-06 08:15 56° 46' 0" N  6° 31' 5" W  View metadata report for BODC series reference number 294770
2947821988-02-06 09:12 56° 45' 0" N  6° 20' 12" W  View metadata report for BODC series reference number 294782
2947941988-02-06 13:15 57° 9' 53" N  6° 30' 6" W  View metadata report for BODC series reference number 294794
2948011988-02-06 14:12 57° 9' 47" N  6° 39' 47" W  View metadata report for BODC series reference number 294801
2948131988-02-06 15:15 57° 10' 18" N  6° 49' 41" W  View metadata report for BODC series reference number 294813
2948251988-02-06 16:08 57° 10' 0" N  7° 0' 0" W  View metadata report for BODC series reference number 294825
2948371988-02-06 17:06 57° 10' 0" N  7° 10' 0" W  View metadata report for BODC series reference number 294837
2948491988-02-06 19:03 57° 24' 18" N  7° 6' 6" W  View metadata report for BODC series reference number 294849
2948501988-02-06 19:52 57° 22' 59" N  7° 0' 35" W  View metadata report for BODC series reference number 294850
2948621988-02-06 20:56 57° 24' 42" N  6° 49' 23" W  View metadata report for BODC series reference number 294862
2948741988-02-06 23:36 57° 49' 54" N  6° 40' 59" W  View metadata report for BODC series reference number 294874
2948861988-02-07 00:25 57° 49' 30" N  6° 30' 42" W  View metadata report for BODC series reference number 294886
2948981988-02-07 01:20 57° 49' 47" N  6° 22' 47" W  View metadata report for BODC series reference number 294898
2945241988-02-03 21:48 55° 30' 0" N  5° 25' 47" W  View metadata report for BODC series reference number 294524
2944931988-02-03 18:22 55° 46' 12" N  5° 13' 59" W  View metadata report for BODC series reference number 294493
2945001988-02-03 19:34 55° 43' 5" N  5° 21' 47" W  View metadata report for BODC series reference number 294500
2945121988-02-03 20:22 55° 39' 53" N  5° 25' 11" W  View metadata report for BODC series reference number 294512
2950541988-02-07 19:43 58° 30' 11" N  5° 20' 23" W  View metadata report for BODC series reference number 295054
2950661988-02-07 20:46 58° 29' 53" N  5° 10' 11" W  View metadata report for BODC series reference number 295066
2950781988-02-08 09:40 57° 27' 42" N  7° 5' 12" W  View metadata report for BODC series reference number 295078
2950911988-02-11 21:17 56° 1' 59" N  8° 0' 18" W  View metadata report for BODC series reference number 295091
2951091988-02-11 22:40 56° 1' 54" N  7° 50' 41" W  View metadata report for BODC series reference number 295109
2951101988-02-11 23:52 56° 1' 59" N  7° 40' 23" W  View metadata report for BODC series reference number 295110
2951221988-02-12 00:56 56° 2' 5" N  7° 30' 17" W  View metadata report for BODC series reference number 295122
2951341988-02-12 01:57 56° 1' 54" N  7° 19' 41" W  View metadata report for BODC series reference number 295134
2951461988-02-12 02:55 56° 1' 54" N  7° 9' 42" W  View metadata report for BODC series reference number 295146
2951581988-02-12 04:09 56° 1' 54" N  7° 0' 6" W  View metadata report for BODC series reference number 295158
2951711988-02-12 05:11 56° 1' 59" N  6° 50' 5" W  View metadata report for BODC series reference number 295171
2951831988-02-12 06:06 56° 2' 42" N  6° 40' 5" W  View metadata report for BODC series reference number 295183
2951951988-02-12 07:01 56° 3' 17" N  6° 29' 6" W  View metadata report for BODC series reference number 295195
2952021988-02-13 15:49 56° 44' 53" N  8° 34' 29" W  View metadata report for BODC series reference number 295202
2952141988-02-13 16:55 56° 45' 18" N  8° 44' 30" W  View metadata report for BODC series reference number 295214
2952261988-02-13 18:03 56° 45' 11" N  8° 55' 36" W  View metadata report for BODC series reference number 295226
2952381988-02-14 16:09 57° 40' 0" N  7° 48' 47" W  View metadata report for BODC series reference number 295238
2952511988-02-14 17:59 57° 48' 24" N  8° 9' 17" W  View metadata report for BODC series reference number 295251
2952631988-02-14 19:30 57° 51' 11" N  8° 29' 53" W  View metadata report for BODC series reference number 295263
2952751988-02-14 20:59 57° 52' 5" N  8° 49' 41" W  View metadata report for BODC series reference number 295275
2952871988-02-14 22:11 57° 53' 5" N  9° 0' 11" W  View metadata report for BODC series reference number 295287
2949051988-02-07 02:09 57° 49' 18" N  6° 12' 35" W  View metadata report for BODC series reference number 294905
2949171988-02-07 02:54 57° 49' 23" N  6° 3' 6" W  View metadata report for BODC series reference number 294917
2949291988-02-07 03:47 57° 48' 53" N  5° 53' 17" W  View metadata report for BODC series reference number 294929
2949301988-02-07 06:52 58° 9' 35" N  5° 30' 11" W  View metadata report for BODC series reference number 294930
2949421988-02-07 08:05 58° 10' 5" N  5° 38' 48" W  View metadata report for BODC series reference number 294942